Terminal Aerodrome Forecast
Issued by NWS Melbourne, FL

Home | Current Version | Previous Version | Text Only | Print | Product List | Glossary On
Versions: 1 2 3 4 5 6 7 8 9 10 11 12 13 14 15
000
FTUS42 KMLB 010532
TAFVRB
TAF
KVRB 010532Z 0106/0206 19006KT P6SM SCT040 SCT110 BKN250
     FM011400 25006KT P6SM FEW030 SCT250
     FM011700 11009KT P6SM SCT030 SCT250=

USA.gov is the U.S. government's official web portal to all federal, state and local government web resources and services.